Time;durP1;ratioP1;P1;durP2;ratioP2;P2;SDS_P1;SDS_P2;PMS_P1;PMS_P2;Temp;Humidity;BMP_temperature;BMP_pressure;BME280_temperature;BME280_humidity;BME280_pressure;Samples;Min_cycle;Max_cycle;Signal;HPM_P1;HPM_P2
2023/02/01 00:01:55;;;;;;;8.23;7.67;;;6.60;99.90;;;;;;5053024;28;20271;-63
2023/02/01 00:04:21;;;;;;;7.60;6.80;;;6.60;99.90;;;;;;5058423;28;20197;-63
2023/02/01 00:06:46;;;;;;;8.53;6.90;;;6.50;99.90;;;;;;5071790;28;20210;-62
2023/02/01 00:09:12;;;;;;;7.40;6.80;;;6.50;99.90;;;;;;5068953;28;20182;-62
2023/02/01 00:11:38;;;;;;;7.03;6.53;;;6.60;99.90;;;;;;5052899;28;20181;-62
2023/02/01 00:14:03;;;;;;;7.57;6.80;;;6.60;99.90;;;;;;5054749;28;20286;-62
2023/02/01 00:16:30;;;;;;;7.73;7.23;;;6.70;99.90;;;;;;5073004;28;20213;-63
2023/02/01 00:19:03;;;;;;;7.53;6.43;;;6.70;99.90;;;;;;5070803;28;20166;-63
2023/02/01 00:21:30;;;;;;;6.77;6.27;;;6.70;99.90;;;;;;5052593;28;20171;-63
2023/02/01 00:23:56;;;;;;;6.73;6.23;;;6.70;99.90;;;;;;5052638;28;20179;-62
2023/02/01 00:26:35;;;;;;;9.63;6.47;;;6.70;99.90;;;;;;5072400;28;20228;-63
2023/02/01 00:29:02;;;;;;;13.73;7.17;;;6.70;99.90;;;;;;5072299;28;20188;-63
2023/02/01 00:31:28;;;;;;;6.50;6.10;;;6.60;99.90;;;;;;5032401;28;20179;-63
2023/02/01 00:33:54;;;;;;;6.90;6.30;;;6.60;99.90;;;;;;5032453;28;20185;-63
2023/02/01 00:36:19;;;;;;;6.97;6.57;;;6.50;99.90;;;;;;5069685;28;20316;-63
2023/02/01 00:38:45;;;;;;;6.77;6.37;;;6.50;99.90;;;;;;5055608;28;20629;-63
2023/02/01 00:41:14;;;;;;;9.07;6.17;;;6.40;99.90;;;;;;5052219;28;20213;-63
2023/02/01 00:43:40;;;;;;;7.10;6.50;;;6.40;99.90;;;;;;5067096;28;20182;-63
2023/02/01 00:46:06;;;;;;;5.97;5.67;;;6.40;99.90;;;;;;5072344;28;20239;-62
2023/02/01 00:48:32;;;;;;;6.53;6.17;;;6.30;99.90;;;;;;5058492;28;20689;-63
2023/02/01 00:51:07;;;;;;;6.33;5.93;;;6.30;99.90;;;;;;5051663;28;20186;-63
2023/02/01 00:53:33;;;;;;;6.57;6.17;;;6.20;99.90;;;;;;5064876;28;20185;-62
2023/02/01 00:55:59;;;;;;;6.00;5.60;;;6.20;99.90;;;;;;5072045;28;20281;-63
2023/02/01 00:58:25;;;;;;;7.47;6.77;;;6.10;99.90;;;;;;5060691;28;20278;-62
2023/02/01 01:01:08;;;;;;;7.30;5.87;;;6.10;99.90;;;;;;5051629;28;20162;-63
2023/02/01 01:03:36;;;;;;;5.50;5.30;;;6.20;99.90;;;;;;5070261;28;20205;-63
2023/02/01 01:06:05;;;;;;;14.83;5.40;;;6.30;99.90;;;;;;5061370;28;20190;-63
2023/02/01 01:08:31;;;;;;;6.63;5.73;;;6.30;99.90;;;;;;5051612;28;20199;-63
2023/02/01 01:10:56;;;;;;;14.53;6.03;;;6.30;99.90;;;;;;5060040;28;20636;-63
2023/02/01 01:13:22;;;;;;;6.60;5.53;;;6.20;99.90;;;;;;5072026;28;20170;-63
2023/02/01 01:15:47;;;;;;;10.50;5.83;;;6.20;99.90;;;;;;5064235;28;20574;-63
2023/02/01 01:18:13;;;;;;;5.70;5.33;;;6.10;99.90;;;;;;5051753;28;20537;-63
2023/02/01 01:20:40;;;;;;;19.53;6.73;;;6.00;99.90;;;;;;5056758;28;20231;-62
2023/02/01 01:23:08;;;;;;;6.70;6.10;;;6.00;99.90;;;;;;5072077;28;20170;-63
2023/02/01 01:25:40;;;;;;;5.60;5.30;;;5.90;99.90;;;;;;5067904;28;20175;-63
2023/02/01 01:28:06;;;;;;;6.60;5.97;;;5.90;99.90;;;;;;5051624;28;20195;-62
2023/02/01 01:30:34;;;;;;;5.93;5.40;;;5.80;99.90;;;;;;5054260;28;20174;-63
2023/02/01 01:32:59;;;;;;;5.87;5.37;;;5.80;99.90;;;;;;5071676;28;20178;-63
2023/02/01 01:35:25;;;;;;;7.57;6.80;;;5.70;99.90;;;;;;5069572;28;20173;-63
2023/02/01 01:37:51;;;;;;;6.20;5.70;;;5.70;99.90;;;;;;5051313;28;20605;-62
2023/02/01 01:40:16;;;;;;;8.30;5.60;;;5.60;99.90;;;;;;5051213;28;20167;-63
2023/02/01 01:42:43;;;;;;;6.20;5.90;;;5.50;99.90;;;;;;5031417;28;20186;-63
2023/02/01 01:45:25;;;;;;;6.93;6.40;;;5.40;99.90;;;;;;5038147;28;20756;-63
2023/02/01 01:48:14;;;;;;;5.63;5.40;;;5.40;99.90;;;;;;5071393;28;20282;-63
2023/02/01 01:50:49;;;;;;;13.53;7.10;;;5.30;99.90;;;;;;5069109;28;20186;-63
2023/02/01 01:53:20;;;;;;;6.73;5.97;;;5.20;99.90;;;;;;5071556;28;20192;-63
2023/02/01 01:55:48;;;;;;;6.77;5.87;;;5.20;99.90;;;;;;5061271;28;20179;-63
2023/02/01 01:58:17;;;;;;;6.70;6.27;;;5.20;99.90;;;;;;5051484;28;20708;-63
2023/02/01 02:00:45;;;;;;;6.30;5.93;;;5.30;99.90;;;;;;5059369;28;20174;-63
2023/02/01 02:03:23;;;;;;;6.13;5.47;;;5.30;99.90;;;;;;5071389;28;20162;-63
2023/02/01 02:05:51;;;;;;;6.23;5.83;;;5.30;99.90;;;;;;5052361;28;20697;-63
2023/02/01 02:08:20;;;;;;;8.47;5.33;;;5.40;99.90;;;;;;5051167;28;20189;-63
2023/02/01 02:11:00;;;;;;;6.73;6.17;;;5.50;99.90;;;;;;5066645;28;20235;-64
2023/02/01 02:13:35;;;;;;;6.97;6.47;;;5.50;99.90;;;;;;5071342;28;20170;-63
2023/02/01 02:16:18;;;;;;;9.60;7.27;;;5.60;99.90;;;;;;5067304;28;20674;-64
2023/02/01 02:19:11;;;;;;;5.90;5.60;;;5.60;99.90;;;;;;5051972;28;20175;-63
2023/02/01 02:21:54;;;;;;;6.60;6.10;;;5.70;99.90;;;;;;5050977;28;20195;-64
2023/02/01 02:24:41;;;;;;;5.30;4.97;;;5.70;99.90;;;;;;5051123;28;20183;-63
2023/02/01 02:27:36;;;;;;;5.10;4.90;;;5.80;99.90;;;;;;5053309;28;20594;-63
2023/02/01 02:30:17;;;;;;;5.70;5.40;;;5.90;99.90;;;;;;5073567;28;20599;-63
2023/02/01 02:33:16;;;;;;;6.03;5.40;;;5.90;99.90;;;;;;5060207;28;20571;-63
2023/02/01 02:35:56;;;;;;;7.83;6.50;;;5.90;99.90;;;;;;5054778;28;20206;-63
2023/02/01 02:38:31;;;;;;;8.37;7.20;;;5.90;99.90;;;;;;5074002;28;20189;-63
2023/02/01 02:41:08;;;;;;;6.97;6.53;;;5.90;99.90;;;;;;5074574;28;20169;-63
2023/02/01 02:54:44;;;;;;;7.57;6.33;;;5.90;99.90;;;;;;5074334;28;20235;-63
2023/02/01 02:55:24;;;;;;;15.87;6.27;;;5.90;99.90;;;;;;5054733;28;20232;-63
2023/02/01 03:06:14;;;;;;;8.50;7.67;;;5.90;99.90;;;;;;5060166;28;20189;-63
2023/02/01 03:08:44;;;;;;;7.30;6.80;;;5.90;99.90;;;;;;5074058;28;20614;-63
2023/02/01 03:11:14;;;;;;;11.33;9.63;;;5.90;99.90;;;;;;5067417;28;20171;-63
2023/02/01 03:13:52;;;;;;;8.27;7.43;;;5.90;99.90;;;;;;5054088;28;20171;-63
2023/02/01 03:16:36;;;;;;;7.47;6.73;;;6.00;99.90;;;;;;5060492;28;20198;-63
2023/02/01 03:19:14;;;;;;;6.87;6.40;;;6.00;99.90;;;;;;5073869;28;20526;-63
2023/02/01 03:21:57;;;;;;;6.37;5.93;;;6.00;99.90;;;;;;5056040;28;20182;-64
2023/02/01 03:24:34;;;;;;;15.70;7.67;;;6.00;99.90;;;;;;5053955;28;20410;-64
2023/02/01 03:27:35;;;;;;;6.70;6.20;;;5.90;99.90;;;;;;5073399;28;20213;-64
2023/02/01 03:30:17;;;;;;;6.43;6.03;;;5.90;99.90;;;;;;5065379;28;20190;-64
2023/02/01 03:33:01;;;;;;;7.47;6.73;;;5.90;99.90;;;;;;5053652;28;20199;-64
2023/02/01 03:35:43;;;;;;;7.87;7.07;;;5.90;99.90;;;;;;5054018;28;20174;-64
2023/02/01 03:38:32;;;;;;;9.37;7.13;;;5.90;99.90;;;;;;5053889;28;20752;-64
2023/02/01 03:41:42;;;;;;;7.50;7.00;;;5.80;99.90;;;;;;5062567;28;20174;-64
2023/02/01 03:44:22;;;;;;;8.13;7.63;;;5.80;99.90;;;;;;5068133;28;20190;-63
2023/02/01 03:47:00;;;;;;;5.70;5.40;;;5.80;99.90;;;;;;5057060;28;20202;-64
2023/02/01 03:49:30;;;;;;;6.17;5.87;;;5.80;99.90;;;;;;5057226;28;20287;-63
2023/02/01 03:51:57;;;;;;;8.47;6.97;;;5.80;99.90;;;;;;5072372;28;20678;-64
2023/02/01 03:54:25;;;;;;;6.50;6.03;;;5.80;99.90;;;;;;5069942;28;20178;-63
2023/02/01 03:56:53;;;;;;;6.03;5.50;;;5.90;99.90;;;;;;5052979;28;20702;-64
2023/02/01 03:59:19;;;;;;;6.17;5.77;;;5.90;99.90;;;;;;5054088;28;20200;-63
2023/02/01 04:01:45;;;;;;;8.77;6.23;;;5.90;99.90;;;;;;5055916;28;20174;-64
2023/02/01 04:04:19;;;;;;;7.43;6.93;;;5.90;99.90;;;;;;5053146;28;20223;-63
2023/02/01 04:06:48;;;;;;;9.60;6.43;;;6.00;99.90;;;;;;5053122;28;20198;-63
2023/02/01 04:09:14;;;;;;;5.50;5.20;;;6.00;99.90;;;;;;5052936;28;20209;-64
2023/02/01 04:11:39;;;;;;;6.67;6.07;;;6.00;99.90;;;;;;5064421;28;20217;-63
2023/02/01 04:14:05;;;;;;;5.57;5.27;;;6.00;99.90;;;;;;5073091;28;20189;-64
2023/02/01 04:16:32;;;;;;;8.70;6.20;;;6.00;99.90;;;;;;5062642;28;20222;-64
2023/02/01 04:18:58;;;;;;;13.90;6.77;;;6.00;99.90;;;;;;5058329;28;20209;-63
2023/02/01 04:21:27;;;;;;;9.80;7.20;;;6.00;99.90;;;;;;5072941;28;20169;-63
2023/02/01 04:23:53;;;;;;;6.83;5.80;;;6.00;99.90;;;;;;5072360;28;20257;-63
2023/02/01 04:26:19;;;;;;;7.60;6.80;;;6.00;99.90;;;;;;5073711;28;20565;-63
2023/02/01 04:28:47;;;;;;;10.17;6.63;;;6.00;99.90;;;;;;5069543;28;20377;-63
2023/02/01 04:31:13;;;;;;;10.27;5.37;;;6.00;99.90;;;;;;5052461;28;20199;-63
2023/02/01 04:33:39;;;;;;;8.60;6.50;;;6.00;99.90;;;;;;5053943;28;20541;-63
2023/02/01 04:36:05;;;;;;;7.47;5.97;;;6.00;99.90;;;;;;5072686;28;20190;-63
2023/02/01 04:38:32;;;;;;;5.90;5.57;;;5.90;99.90;;;;;;5072026;28;20186;-63
2023/02/01 04:40:58;;;;;;;5.83;5.50;;;5.90;99.90;;;;;;5032126;28;20172;-63
2023/02/01 04:43:24;;;;;;;6.17;5.60;;;5.80;99.90;;;;;;5031740;28;20453;-63
2023/02/01 04:45:50;;;;;;;7.00;6.50;;;5.70;99.90;;;;;;5069412;28;20521;-61
2023/02/01 04:48:17;;;;;;;8.73;8.20;;;5.60;99.90;;;;;;5066640;28;20245;-63
2023/02/01 04:50:47;;;;;;;5.50;5.30;;;5.60;99.90;;;;;;5051592;28;20167;-62
2023/02/01 04:53:15;;;;;;;5.83;5.53;;;5.50;99.90;;;;;;5056547;28;20162;-63
2023/02/01 04:55:42;;;;;;;6.27;5.87;;;5.50;99.90;;;;;;5071761;28;20584;-63
2023/02/01 04:58:08;;;;;;;6.37;6.03;;;5.40;99.90;;;;;;5068731;28;20237;-63
2023/02/01 05:00:33;;;;;;;6.70;5.97;;;5.40;99.90;;;;;;5052523;28;20198;-63
2023/02/01 05:02:59;;;;;;;6.00;5.50;;;5.40;99.90;;;;;;5071894;28;20162;-63
2023/02/01 05:05:26;;;;;;;6.33;5.80;;;5.30;99.90;;;;;;5062372;28;20182;-63
2023/02/01 05:07:51;;;;;;;6.30;6.00;;;5.30;99.90;;;;;;5052031;28;20186;-63
2023/02/01 05:10:17;;;;;;;7.63;6.00;;;5.30;99.90;;;;;;5059394;28;20185;-63
2023/02/01 05:15:29;;;;;;;5.70;5.40;;;5.20;99.90;;;;;;5062904;28;20186;-63
2023/02/01 05:17:55;;;;;;;5.90;5.60;;;5.20;99.90;;;;;;5051858;28;20210;-63
2023/02/01 05:20:20;;;;;;;11.70;5.87;;;5.10;99.90;;;;;;5058652;28;20185;-64
2023/02/01 05:22:46;;;;;;;6.00;5.40;;;5.10;99.90;;;;;;5071655;28;20627;-63
2023/02/01 05:25:11;;;;;;;5.97;5.30;;;5.10;99.90;;;;;;5071091;28;20181;-63
2023/02/01 05:27:37;;;;;;;7.77;5.87;;;5.10;99.90;;;;;;5071615;28;20201;-64
2023/02/01 05:30:04;;;;;;;6.83;6.17;;;5.10;99.90;;;;;;5070778;28;20185;-64
2023/02/01 05:32:30;;;;;;;7.10;5.93;;;5.10;99.90;;;;;;5071669;28;20530;-63
2023/02/01 05:34:56;;;;;;;7.27;6.67;;;5.10;99.90;;;;;;5070942;28;20182;-63
2023/02/01 05:37:22;;;;;;;5.30;5.10;;;5.10;99.90;;;;;;5071535;28;20210;-63
2023/02/01 05:39:48;;;;;;;6.03;5.73;;;5.10;99.90;;;;;;5062805;28;20209;-63
2023/02/01 05:42:13;;;;;;;8.37;7.63;;;5.10;99.90;;;;;;5051476;28;20206;-63
2023/02/01 05:44:39;;;;;;;11.57;11.07;;;5.10;99.90;;;;;;5057247;28;20567;-64
2023/02/01 05:47:05;;;;;;;6.27;5.97;;;5.10;99.90;;;;;;5071354;28;20202;-64
2023/02/01 05:49:30;;;;;;;6.40;6.10;;;5.10;99.90;;;;;;5066711;28;20175;-63
2023/02/01 05:51:56;;;;;;;7.30;6.67;;;5.10;99.90;;;;;;5050430;28;20190;-63
2023/02/01 05:54:21;;;;;;;9.57;8.63;;;5.10;99.90;;;;;;5053586;28;20190;-64
2023/02/01 05:56:47;;;;;;;19.97;6.37;;;5.10;99.90;;;;;;5071034;28;20574;-63
2023/02/01 05:59:12;;;;;;;7.93;7.50;;;5.10;99.90;;;;;;5070430;28;20174;-63
2023/02/01 06:01:38;;;;;;;6.53;6.23;;;5.00;99.90;;;;;;5051012;28;20186;-63
2023/02/01 06:04:04;;;;;;;10.00;9.30;;;5.00;99.90;;;;;;5052583;28;20183;-63
2023/02/01 06:06:29;;;;;;;8.40;7.90;;;5.00;99.90;;;;;;5055377;28;20243;-63
2023/02/01 06:08:55;;;;;;;14.37;7.83;;;5.00;99.90;;;;;;5055515;28;20178;-64
2023/02/01 06:11:21;;;;;;;8.73;8.33;;;5.00;99.90;;;;;;5070406;28;20210;-63
2023/02/01 06:13:46;;;;;;;7.07;6.43;;;4.90;99.90;;;;;;5071038;28;20182;-63
2023/02/01 06:16:15;;;;;;;7.47;5.93;;;4.90;99.90;;;;;;5055087;28;20244;-63
2023/02/01 06:18:41;;;;;;;5.77;5.47;;;4.90;99.90;;;;;;5057046;28;20350;-63
2023/02/01 06:21:08;;;;;;;10.37;6.83;;;4.80;99.90;;;;;;5074926;28;20193;-63
2023/02/01 06:23:33;;;;;;;6.90;6.23;;;4.80;99.90;;;;;;5074376;28;20166;-63
2023/02/01 06:26:02;;;;;;;28.80;7.50;;;4.80;99.90;;;;;;5075112;28;20257;-63
2023/02/01 06:28:28;;;;;;;8.17;6.20;;;4.80;99.90;;;;;;5075073;28;20190;-64
2023/02/01 06:30:54;;;;;;;6.73;6.43;;;4.80;99.90;;;;;;5054846;28;20205;-63
2023/02/01 06:33:20;;;;;;;9.73;7.30;;;4.80;99.90;;;;;;5061210;28;20209;-63
2023/02/01 06:35:46;;;;;;;11.77;7.80;;;4.80;99.90;;;;;;5074830;28;20520;-63
2023/02/01 06:38:12;;;;;;;6.50;6.20;;;4.80;99.90;;;;;;5074072;28;20198;-63
2023/02/01 06:40:38;;;;;;;9.63;6.77;;;4.80;99.90;;;;;;5074519;28;20173;-63
2023/02/01 06:43:04;;;;;;;6.00;5.70;;;4.90;99.90;;;;;;5071224;28;20705;-64
2023/02/01 06:45:30;;;;;;;7.57;6.30;;;5.00;99.90;;;;;;5054833;28;20348;-63
2023/02/01 06:47:55;;;;;;;7.87;7.13;;;5.00;99.90;;;;;;5054549;28;20199;-63
2023/02/01 06:50:21;;;;;;;11.97;6.10;;;5.10;99.90;;;;;;5054320;28;20171;-63
2023/02/01 06:52:47;;;;;;;7.07;6.67;;;5.20;99.90;;;;;;5053728;28;20273;-63
2023/02/01 06:55:13;;;;;;;13.97;12.93;;;5.20;99.90;;;;;;5054969;28;20187;-63
2023/02/01 06:57:38;;;;;;;6.23;5.80;;;5.20;99.90;;;;;;5054837;28;20715;-63
2023/02/01 07:00:05;;;;;;;7.23;6.73;;;5.20;99.90;;;;;;5071498;28;20178;-63
2023/02/01 07:02:31;;;;;;;12.73;7.40;;;5.30;99.90;;;;;;5072562;28;20170;-64
2023/02/01 07:04:56;;;;;;;7.33;6.60;;;5.30;99.90;;;;;;5074816;28;20660;-63
2023/02/01 07:07:22;;;;;;;9.23;6.93;;;5.30;99.90;;;;;;5060417;28;20217;-63
2023/02/01 07:09:50;;;;;;;10.13;5.33;;;5.30;99.90;;;;;;5053940;28;20179;-63
2023/02/01 07:12:16;;;;;;;6.13;5.73;;;5.40;99.90;;;;;;5066021;28;20192;-63
2023/02/01 07:14:42;;;;;;;6.60;6.03;;;5.40;99.90;;;;;;5073536;28;20178;-63
2023/02/01 07:17:07;;;;;;;6.30;5.77;;;5.40;99.90;;;;;;5063638;28;20268;-63
2023/02/01 07:19:33;;;;;;;7.27;5.80;;;5.50;99.90;;;;;;5055771;28;20394;-63
2023/02/01 07:21:59;;;;;;;6.60;6.23;;;5.50;99.90;;;;;;5054500;28;20206;-63
2023/02/01 07:24:24;;;;;;;5.50;5.20;;;5.50;99.90;;;;;;5061505;28;20240;-62
2023/02/01 07:26:50;;;;;;;10.30;6.37;;;5.50;99.90;;;;;;5072303;28;20247;-63
2023/02/01 07:29:17;;;;;;;7.80;7.40;;;5.50;99.90;;;;;;5068427;28;20220;-63
2023/02/01 07:31:43;;;;;;;10.20;9.27;;;5.50;99.90;;;;;;5073837;28;20220;-63
2023/02/01 07:34:08;;;;;;;6.57;5.97;;;5.50;99.90;;;;;;5071337;28;20660;-63
2023/02/01 07:36:36;;;;;;;5.43;5.23;;;5.50;99.90;;;;;;5054956;28;20248;-63
2023/02/01 07:39:02;;;;;;;8.60;8.10;;;5.50;99.90;;;;;;5056316;28;20167;-62
2023/02/01 07:41:28;;;;;;;6.43;5.40;;;5.50;99.90;;;;;;5074493;28;20162;-63
2023/02/01 07:43:54;;;;;;;10.23;7.40;;;5.50;99.90;;;;;;5074672;28;20177;-63
2023/02/01 07:46:20;;;;;;;11.67;8.27;;;5.20;99.90;;;;;;5054852;28;20532;-63
2023/02/01 07:48:46;;;;;;;6.70;6.20;;;5.60;99.90;;;;;;5061447;28;20178;-63
2023/02/01 07:51:14;;;;;;;7.07;6.63;;;5.60;99.90;;;;;;5073543;28;20560;-62
2023/02/01 07:53:40;;;;;;;6.57;6.27;;;5.60;99.90;;;;;;5067062;28;20258;-63
2023/02/01 07:56:15;;;;;;;10.07;6.70;;;5.60;99.90;;;;;;5055312;28;20575;-63
2023/02/01 07:58:40;;;;;;;6.70;6.30;;;5.60;99.90;;;;;;5072915;28;20189;-63
2023/02/01 08:01:23;;;;;;;7.50;6.90;;;5.60;99.90;;;;;;5072324;28;20538;-63
2023/02/01 08:03:59;;;;;;;6.00;5.60;;;5.70;99.90;;;;;;5064072;28;20214;-63
2023/02/01 08:06:27;;;;;;;6.33;6.03;;;5.70;99.90;;;;;;5053018;28;20166;-63
2023/02/01 08:08:53;;;;;;;6.27;5.73;;;5.70;99.90;;;;;;5053893;28;20175;-63
2023/02/01 08:11:20;;;;;;;6.33;5.97;;;5.70;99.90;;;;;;5072677;28;20229;-64
2023/02/01 08:13:46;;;;;;;6.27;5.67;;;5.70;99.90;;;;;;5072494;28;20175;-63
2023/02/01 08:16:13;;;;;;;6.27;5.97;;;5.70;99.90;;;;;;5053164;28;20664;-63
2023/02/01 08:18:40;;;;;;;5.60;5.10;;;5.70;99.90;;;;;;5065496;28;20273;-63
2023/02/01 08:21:07;;;;;;;10.53;6.30;;;5.70;99.90;;;;;;5068068;28;20182;-63
2023/02/01 08:23:35;;;;;;;8.17;5.47;;;5.70;99.90;;;;;;5084782;28;20261;-63
2023/02/01 08:26:13;;;;;;;10.30;5.63;;;5.70;99.90;;;;;;5054613;28;20177;-63
2023/02/01 08:28:40;;;;;;;5.67;5.47;;;5.80;99.90;;;;;;5072229;28;20194;-63
2023/02/01 08:31:08;;;;;;;6.47;5.93;;;5.80;99.90;;;;;;5068332;28;20175;-63
2023/02/01 08:33:36;;;;;;;9.93;5.70;;;5.80;99.90;;;;;;5070370;28;20506;-63
2023/02/01 08:36:04;;;;;;;7.83;7.17;;;5.90;99.90;;;;;;5069969;28;20219;-63
2023/02/01 08:38:29;;;;;;;6.97;6.40;;;5.90;99.90;;;;;;5084649;28;20600;-63
2023/02/01 08:40:55;;;;;;;7.27;6.30;;;5.90;99.90;;;;;;5052109;28;20171;-63
2023/02/01 08:43:21;;;;;;;20.83;6.83;;;5.90;99.90;;;;;;5072379;28;20163;-63
2023/02/01 08:45:46;;;;;;;6.00;5.70;;;5.90;99.90;;;;;;5065939;28;20220;-63
2023/02/01 08:48:12;;;;;;;6.53;5.90;;;5.90;99.90;;;;;;5052292;28;20669;-63
2023/02/01 08:50:37;;;;;;;7.23;6.73;;;5.90;99.90;;;;;;5055486;28;20178;-63
2023/02/01 08:53:03;;;;;;;6.87;6.30;;;5.90;99.90;;;;;;5070153;28;20189;-63
2023/02/01 08:55:29;;;;;;;14.67;13.83;;;6.00;99.90;;;;;;5068303;28;20722;-63
2023/02/01 08:57:55;;;;;;;11.70;5.73;;;6.00;99.90;;;;;;5051914;28;20544;-63
2023/02/01 09:00:21;;;;;;;9.73;9.23;;;6.10;99.90;;;;;;5061341;28;20638;-63
2023/02/01 09:02:47;;;;;;;6.97;6.37;;;6.10;99.90;;;;;;5063721;28;20214;-63
2023/02/01 09:05:16;;;;;;;6.17;5.73;;;6.10;99.90;;;;;;5053627;28;20629;-63
2023/02/01 09:07:42;;;;;;;6.30;5.90;;;6.20;99.90;;;;;;5057590;28;20797;-63
2023/02/01 09:10:08;;;;;;;7.17;6.40;;;6.30;99.90;;;;;;5072031;28;20224;-63
2023/02/01 09:12:35;;;;;;;7.83;5.50;;;6.30;99.90;;;;;;5067010;28;20178;-63
2023/02/01 09:15:01;;;;;;;6.63;6.00;;;6.50;99.90;;;;;;5051701;28;20167;-63
2023/02/01 09:17:28;;;;;;;6.07;5.33;;;6.70;99.90;;;;;;5062560;28;20209;-65
2023/02/01 09:19:53;;;;;;;7.87;6.30;;;6.80;99.90;;;;;;5071358;28;20178;-63
2023/02/01 09:22:19;;;;;;;7.43;5.50;;;6.80;99.90;;;;;;5069997;28;20180;-63
2023/02/01 09:24:45;;;;;;;11.27;5.90;;;6.80;99.90;;;;;;5071509;28;20181;-63
2023/02/01 09:27:11;;;;;;;6.37;5.90;;;6.70;99.90;;;;;;5061724;28;20207;-63
2023/02/01 09:29:36;;;;;;;8.50;6.57;;;6.60;99.90;;;;;;5051172;28;20663;-63
2023/02/01 09:32:02;;;;;;;10.30;5.80;;;6.60;99.90;;;;;;5058727;28;20264;-63
2023/02/01 09:34:28;;;;;;;6.73;6.33;;;6.50;99.90;;;;;;5071555;28;20632;-63
2023/02/01 09:36:53;;;;;;;6.13;5.13;;;6.50;99.90;;;;;;5065265;28;20209;-63
2023/02/01 09:39:19;;;;;;;8.20;5.43;;;6.60;99.90;;;;;;5051022;28;20821;-63
2023/02/01 09:41:50;;;;;;;6.20;5.70;;;6.60;99.90;;;;;;5064503;28;20663;-63
2023/02/01 09:44:59;;;;;;;6.97;6.10;;;6.70;99.90;;;;;;5071468;28;20174;-63
2023/02/01 09:47:26;;;;;;;8.57;5.60;;;6.80;99.90;;;;;;5052695;28;20199;-63
2023/02/01 09:50:04;;;;;;;8.33;6.00;;;6.80;99.90;;;;;;5051029;28;20171;-63
2023/02/01 09:52:38;;;;;;;7.87;6.03;;;6.90;99.90;;;;;;5068528;28;20260;-63
2023/02/01 09:55:20;;;;;;;9.17;6.10;;;7.00;99.90;;;;;;5071372;28;20335;-63
2023/02/01 09:57:54;;;;;;;8.33;7.53;;;7.00;99.90;;;;;;5050973;28;20206;-63
2023/02/01 10:00:25;;;;;;;12.27;5.73;;;6.90;99.90;;;;;;5051064;28;20170;-63
2023/02/01 10:02:52;;;;;;;11.17;9.33;;;6.90;99.90;;;;;;5031131;28;20175;-63
2023/02/01 10:05:46;;;;;;;7.30;6.47;;;6.90;99.90;;;;;;5049883;28;20173;-64
2023/02/01 10:08:30;;;;;;;7.70;6.10;;;6.90;99.90;;;;;;5071229;28;20190;-63
2023/02/01 10:11:04;;;;;;;6.87;6.20;;;7.00;99.90;;;;;;5056676;28;20178;-63
2023/02/01 10:13:39;;;;;;;7.80;7.20;;;7.00;99.90;;;;;;5051216;28;20171;-63
2023/02/01 10:16:32;;;;;;;8.37;7.87;;;7.20;99.90;;;;;;5065432;28;20704;-63
2023/02/01 10:19:19;;;;;;;8.90;8.13;;;7.40;99.90;;;;;;5071080;28;20663;-63
2023/02/01 10:21:50;;;;;;;8.87;8.17;;;7.60;99.90;;;;;;5052793;28;20174;-63
2023/02/01 10:24:52;;;;;;;13.13;6.60;;;7.70;99.90;;;;;;5054615;28;20175;-63
2023/02/01 10:27:22;;;;;;;7.73;6.97;;;7.90;99.90;;;;;;5058608;28;20296;-62
2023/02/01 10:29:58;;;;;;;6.60;6.03;;;8.10;99.90;;;;;;5056456;28;20318;-61
2023/02/01 10:32:34;;;;;;;7.70;5.87;;;8.20;93.20;;;;;;5068966;28;20169;-63
2023/02/01 10:35:15;;;;;;;10.80;6.23;;;8.50;47.80;;;;;;5050876;28;20171;-60
2023/02/01 10:37:42;;;;;;;6.87;6.00;;;8.60;21.10;;;;;;5051805;28;20214;-63
2023/02/01 10:40:22;;;;;;;10.03;6.47;;;8.60;36.30;;;;;;5050572;28;20163;-63
2023/02/01 10:42:51;;;;;;;5.63;5.10;;;8.70;15.60;;;;;;5061952;28;20208;-63
2023/02/01 10:45:23;;;;;;;11.70;5.27;;;9.00;14.20;;;;;;5070802;28;20520;-64
2023/02/01 10:47:52;;;;;;;11.77;6.13;;;9.30;1.00;;;;;;5064743;28;20190;-63
2023/02/01 10:50:52;;;;;;;7.47;5.67;;;9.70;1.00;;;;;;5072065;28;20174;-63
2023/02/01 10:53:25;;;;;;;10.07;5.37;;;9.90;1.00;;;;;;5054499;28;20248;-63
2023/02/01 10:55:53;;;;;;;6.10;5.57;;;10.10;1.00;;;;;;5055644;28;20163;-63
2023/02/01 10:58:25;;;;;;;5.90;5.07;;;10.30;1.00;;;;;;5074247;28;20259;-63
2023/02/01 11:01:21;;;;;;;7.33;5.03;;;10.30;1.00;;;;;;5066586;28;20178;-63
2023/02/01 11:03:59;;;;;;;8.50;5.23;;;10.40;99.90;;;;;;5054222;28;20535;-63
2023/02/01 11:06:38;;;;;;;11.00;6.33;;;10.20;1.00;;;;;;5065484;28;20231;-63
2023/02/01 11:09:07;;;;;;;9.47;5.83;;;9.90;1.00;;;;;;5073961;28;20166;-64
2023/02/01 11:11:51;;;;;;;6.67;4.90;;;9.60;99.90;;;;;;5055741;28;20218;-64
2023/02/01 11:14:20;;;;;;;10.27;5.80;;;9.40;99.90;;;;;;5054175;28;20199;-63
2023/02/01 11:17:10;;;;;;;8.30;5.40;;;9.40;1.00;;;;;;5072457;28;20714;-63
2023/02/01 11:19:36;;;;;;;5.23;4.50;;;9.60;99.90;;;;;;5072165;28;20525;-63
2023/02/01 11:22:03;;;;;;;10.33;5.83;;;9.80;99.90;;;;;;5053852;28;20170;-63
2023/02/01 11:24:33;;;;;;;6.53;5.93;;;9.90;99.90;;;;;;5053789;28;20171;-63
2023/02/01 11:27:02;;;;;;;6.50;5.40;;;9.80;24.30;;;;;;5073252;28;20198;-63
2023/02/01 11:29:37;;;;;;;7.83;5.80;;;9.90;28.70;;;;;;5073581;28;20541;-63
2023/02/01 11:32:04;;;;;;;6.30;5.70;;;9.80;1.00;;;;;;5073565;28;20275;-63
2023/02/01 11:34:46;;;;;;;5.43;5.03;;;9.70;99.90;;;;;;5073671;28;20198;-63
2023/02/01 11:37:26;;;;;;;7.47;6.30;;;9.40;99.90;;;;;;5060551;28;20206;-63
2023/02/01 11:40:00;;;;;;;6.40;5.57;;;9.20;99.90;;;;;;5070850;28;20232;-63
2023/02/01 11:42:28;;;;;;;6.20;5.70;;;9.30;1.00;;;;;;5053655;28;20192;-63
2023/02/01 11:45:23;;;;;;;5.87;5.37;;;9.30;99.90;;;;;;5053486;28;20170;-63
2023/02/01 11:47:53;;;;;;;11.83;5.80;;;9.30;99.90;;;;;;5073342;28;20218;-63
2023/02/01 11:50:32;;;;;;;11.87;6.40;;;9.40;1.00;;;;;;5069673;28;20659;-63
2023/02/01 11:54:02;;;;;;;10.17;7.80;;;9.40;99.90;;;;;;5051527;28;20182;-63
2023/02/01 11:56:33;;;;;;;6.53;6.17;;;9.10;99.90;;;;;;5013924;28;20219;-63
2023/02/01 11:59:22;;;;;;;7.10;6.50;;;8.80;1.00;;;;;;5050634;28;20171;-63
2023/02/01 12:02:02;;;;;;;8.77;7.10;;;8.70;99.90;;;;;;5061613;28;20186;-63
2023/02/01 12:04:51;;;;;;;9.53;8.70;;;8.50;99.90;;;;;;5071632;28;20231;-64
2023/02/01 12:07:29;;;;;;;26.67;16.93;;;8.40;1.00;;;;;;5063988;28;20226;-63
2023/02/01 12:10:06;;;;;;;17.53;7.20;;;8.30;99.90;;;;;;5052792;28;20318;-63
2023/02/01 12:12:59;;;;;;;9.27;5.90;;;8.30;1.00;;;;;;5053062;28;20529;-63
2023/02/01 12:15:32;;;;;;;6.87;6.47;;;8.30;1.00;;;;;;5058804;28;20730;-63
2023/02/01 12:18:18;;;;;;;6.13;5.67;;;8.20;99.90;;;;;;5072771;28;20230;-63
2023/02/01 12:21:21;;;;;;;7.07;6.47;;;8.30;1.00;;;;;;5062554;28;20171;-63
2023/02/01 12:24:20;;;;;;;6.07;5.17;;;8.40;1.00;;;;;;5052702;28;20675;-63
2023/02/01 12:26:58;;;;;;;7.33;6.73;;;8.40;1.00;;;;;;5069909;28;20194;-64
2023/02/01 12:30:10;;;;;;;6.63;5.47;;;8.50;1.00;;;;;;5072353;28;20182;-63
2023/02/01 12:32:57;;;;;;;8.13;7.53;;;8.60;99.90;;;;;;5052516;28;20182;-63
2023/02/01 12:35:41;;;;;;;6.10;5.70;;;8.70;1.00;;;;;;5057357;28;20201;-63
2023/02/01 12:38:17;;;;;;;13.33;6.30;;;8.70;1.00;;;;;;5072377;28;20762;-63
2023/02/01 12:40:58;;;;;;;12.17;5.73;;;8.80;1.00;;;;;;5070354;28;20549;-63
2023/02/01 12:43:54;;;;;;;6.00;5.57;;;8.70;1.00;;;;;;5072325;28;20604;-63
2023/02/01 12:46:33;;;;;;;6.47;5.90;;;8.60;99.90;;;;;;5057758;28;20178;-63
2023/02/01 12:49:05;;;;;;;8.10;6.40;;;8.50;99.90;;;;;;5050947;28;20468;-63
2023/02/01 12:51:39;;;;;;;14.87;6.17;;;8.40;99.90;;;;;;5066307;28;20197;-63
2023/02/01 12:54:17;;;;;;;7.83;5.50;;;8.40;1.00;;;;;;5072240;28;20650;-63
2023/02/01 12:56:46;;;;;;;8.60;6.10;;;8.30;1.00;;;;;;5055445;28;20684;-63
2023/02/01 12:59:34;;;;;;;7.50;6.40;;;8.30;1.00;;;;;;5054662;28;20235;-64
2023/02/01 13:02:33;;;;;;;6.17;5.87;;;8.30;99.90;;;;;;5068449;28;20198;-63
2023/02/01 13:05:12;;;;;;;6.50;5.90;;;8.30;46.60;;;;;;5049385;28;20265;-63
2023/02/01 13:08:02;;;;;;;5.70;5.30;;;8.30;99.90;;;;;;5032304;28;20226;-63
2023/02/01 13:11:03;;;;;;;6.23;5.70;;;8.30;25.00;;;;;;5031810;28;20180;-61
2023/02/01 13:13:56;;;;;;;5.93;5.43;;;8.20;1.00;;;;;;5047678;28;20178;-63
2023/02/01 13:16:28;;;;;;;5.73;5.40;;;8.20;1.00;;;;;;5061547;28;20281;-63
2023/02/01 13:19:09;;;;;;;5.60;5.20;;;8.20;1.00;;;;;;5052652;28;20274;-63
2023/02/01 13:21:39;;;;;;;5.57;5.17;;;8.20;1.00;;;;;;5062795;28;20181;-62
2023/02/01 13:24:20;;;;;;;6.87;5.10;;;8.20;1.00;;;;;;5051588;28;20648;-64
2023/02/01 13:26:46;;;;;;;6.77;6.17;;;8.20;21.70;;;;;;5051392;28;20202;-62
2023/02/01 13:29:13;;;;;;;8.80;8.20;;;8.10;99.90;;;;;;5051235;28;20270;-61
2023/02/01 13:32:22;;;;;;;6.47;5.87;;;8.10;99.90;;;;;;5051443;28;20178;-63
2023/02/01 13:35:22;;;;;;;6.33;5.90;;;8.00;1.00;;;;;;5043789;28;20282;-63
2023/02/01 13:38:26;;;;;;;9.57;6.60;;;8.00;36.30;;;;;;5049669;28;20316;-64
2023/02/01 13:41:14;;;;;;;6.30;5.70;;;8.00;1.00;;;;;;5031009;28;20190;-64
2023/02/01 13:43:49;;;;;;;5.50;5.30;;;8.00;41.50;;;;;;5029162;28;20656;-62